| time (UTC) | temp C | wind direction | speed KPH | gust KPH | rain 1hr cm | rain 24hr cm | rain mn cm | humidity % | barometer mb |
| 20260506165544 | 15 | 57 | 6.4 | 16.1 | 0.00 | 0.00 | 0.00 | 88 | 1012.8 |
| 20260506165044 | 15 | 112 | 4.8 | 11.3 | 0.00 | 0.00 | 0.00 | 90 | 1012.7 |
| 20260506164558 | 15 | 0 | 0.0 | 4.8 | 0.00 | 0.00 | 0.00 | 91 | 1013.4 |
| 20260506164043 | 14 | 0 | 0.0 | 30.6 | 0.00 | 0.00 | 0.00 | 92 | 1013.5 |
| 20260506163543 | 13 | 0 | 1.6 | 30.6 | 0.00 | 0.00 | 0.00 | 92 | 1012.3 |
| 20260506163052 | 13 | 82 | 22.5 | 30.6 | 0.00 | 0.00 | 0.00 | 91 | 1010.9 |
| 20260506162543 | 13 | 58 | 3.2 | 17.7 | 0.00 | 0.00 | 0.00 | 91 | 1013.7 |
| 20260506162046 | 13 | 50 | 9.7 | 24.1 | 0.00 | 0.00 | 0.00 | 92 | 1013.9 |
| 20260506161553 | 13 | 334 | 8.0 | 24.1 | 0.00 | 0.00 | 0.00 | 92 | 1014.5 |
| 20260506161043 | 13 | 26 | 16.1 | 24.1 | 0.00 | 0.00 | 0.00 | 93 | 1013.9 |
| 20260506160544 | 13 | 39 | 12.9 | 19.3 | 0.00 | 0.00 | 0.00 | 93 | 1014.4 |
| 20260506160059 | 13 | 34 | 6.4 | 19.3 | 0.00 | 0.00 | 0.00 | 93 | 1015.0 |
| 20260506155547 | 13 | 38 | 4.8 | 19.3 | 0.00 | 0.00 | 0.00 | 93 | 1015.7 |
| 20260506155043 | 13 | 5 | 6.4 | 24.1 | 0.00 | 0.00 | 0.00 | 93 | 1016.1 |
| 20260506154555 | 13 | 351 | 9.7 | 24.1 | 0.00 | 0.00 | 0.00 | 93 | 1015.8 |
| 20260506154044 | 13 | 344 | 11.3 | 24.1 | 0.00 | 0.00 | 0.00 | 93 | 1015.7 |
| 20260506153544 | 13 | 345 | 11.3 | 25.7 | 0.00 | 0.00 | 0.00 | 93 | 1015.4 |
| 20260506153111 | 13 | 9 | 16.1 | 30.6 | 0.00 | 0.00 | 0.00 | 93 | 1014.6 |
| 20260506152544 | 13 | 17 | 11.3 | 30.6 | 0.00 | 0.00 | 0.00 | 92 | 1014.7 |
| 20260506152042 | 13 | 89 | 16.1 | 30.6 | 0.00 | 0.00 | 0.00 | 91 | 1014.6 |
| 20260506151555 | 14 | 15 | 14.5 | 27.4 | 0.00 | 0.00 | 0.00 | 91 | 1014.4 |
| 20260506151046 | 14 | 24 | 12.9 | 32.2 | 0.00 | 0.00 | 0.00 | 91 | 1014.5 |
| 20260506150544 | 15 | 34 | 14.5 | 32.2 | 0.00 | 0.00 | 0.00 | 90 | 1014.3 |
| 20260506150100 | 15 | 360 | 17.7 | 30.6 | 0.00 | 0.00 | 0.00 | 90 | 1014.2 |
| 20260506145544 | 15 | 13 | 16.1 | 29.0 | 0.00 | 0.00 | 0.00 | 90 | 1013.7 |
| 20260506145043 | 15 | 5 | 14.5 | 29.0 | 0.00 | 0.00 | 0.00 | 90 | 1013.3 |
| 20260506144557 | 15 | 12 | 16.1 | 29.0 | 0.00 | 0.00 | 0.00 | 91 | 1013.2 |
| 20260506144044 | 15 | 24 | 12.9 | 25.7 | 0.00 | 0.00 | 0.00 | 91 | 1013.5 |
| 20260506143544 | 15 | 360 | 11.3 | 20.9 | 0.00 | 0.00 | 0.00 | 92 | 1013.3 |
| 20260506143054 | 15 | 20 | 12.9 | 27.4 | 0.00 | 0.00 | 0.00 | 91 | 1013.3 |
| 20260506142542 | 15 | 32 | 12.9 | 27.4 | 0.00 | 0.00 | 0.00 | 91 | 1013.3 |
| 20260506142044 | 16 | 15 | 12.9 | 27.4 | 0.00 | 0.00 | 0.00 | 92 | 1013.1 |
| 20260506141551 | 16 | 351 | 16.1 | 24.1 | 0.00 | 0.00 | 0.00 | 91 | 1013.1 |
| 20260506141043 | 16 | 11 | 11.3 | 20.9 | 0.00 | 0.00 | 0.00 | 92 | 1012.8 |
| 20260506140548 | 16 | 11 | 12.9 | 20.9 | 0.00 | 0.00 | 0.00 | 92 | 1012.5 |
| 20260506140053 | 16 | 31 | 11.3 | 22.5 | 0.00 | 0.00 | 0.00 | 92 | 1012.4 |
| 20260506135544 | 16 | 26 | 11.3 | 22.5 | 0.00 | 0.00 | 0.00 | 92 | 1012.3 |
| 20260506135042 | 16 | 355 | 14.5 | 24.1 | 0.00 | 0.00 | 0.00 | 92 | 1012.1 |
| 20260506134553 | 16 | 10 | 14.5 | 24.1 | 0.00 | 0.00 | 0.00 | 92 | 1012.1 |
| 20260506134046 | 16 | 49 | 14.5 | 25.7 | 0.00 | 0.00 | 0.00 | 92 | 1012.2 |
| 20260506133544 | 17 | 30 | 14.5 | 25.7 | 0.00 | 0.00 | 0.00 | 92 | 1012.1 |
| 20260506133054 | 17 | 19 | 16.1 | 25.7 | 0.00 | 0.00 | 0.00 | 92 | 1012.1 |
| 20260506132547 | 17 | 18 | 12.9 | 25.7 | 0.00 | 0.00 | 0.00 | 92 | 1011.9 |
| 20260506132047 | 17 | 32 | 14.5 | 22.5 | 0.00 | 0.00 | 0.00 | 92 | 1011.8 |
| 20260506131556 | 17 | 355 | 11.3 | 22.5 | 0.00 | 0.00 | 0.00 | 91 | 1011.7 |
| 20260506131044 | 17 | 11 | 11.3 | 24.1 | 0.00 | 0.00 | 0.00 | 91 | 1011.6 |
| 20260506130544 | 17 | 360 | 11.3 | 24.1 | 0.00 | 0.00 | 0.00 | 91 | 1011.5 |
| 20260506130057 | 17 | 5 | 11.3 | 24.1 | 0.00 | 0.00 | 0.00 | 91 | 1011.5 |
| 20260506125543 | 17 | 5 | 11.3 | 20.9 | 0.00 | 0.00 | 0.00 | 91 | 1011.3 |
| 20260506125042 | 18 | 5 | 12.9 | 20.9 | 0.00 | 0.00 | 0.00 | 92 | 1011.3 |
| 20260506124550 | 18 | 22 | 11.3 | 22.5 | 0.00 | 0.00 | 0.00 | 92 | 1011.3 |
| 20260506124044 | 18 | 5 | 14.5 | 22.5 | 0.00 | 0.00 | 0.00 | 92 | 1011.1 |
| 20260506123543 | 18 | 34 | 8.0 | 17.7 | 0.00 | 0.00 | 0.00 | 91 | 1011.1 |
| 20260506123056 | 19 | 38 | 8.0 | 14.5 | 0.00 | 0.00 | 0.00 | 90 | 1011.2 |
| 20260506122542 | 20 | 32 | 4.8 | 19.3 | 0.00 | 0.00 | 0.00 | 91 | 1011.0 |
| 20260506122043 | 21 | 47 | 11.3 | 19.3 | 0.00 | 0.00 | 0.00 | 91 | 1010.8 |
| 20260506121555 | 22 | 19 | 3.2 | 4.8 | 0.00 | 0.00 | 0.00 | 94 | 1010.6 |
| 20260506121043 | 22 | 0 | 0.0 | 1.6 | 0.00 | 0.00 | 0.00 | 94 | 1010.4 |
| 20260506120543 | 22 | 0 | 0.0 | 1.6 | 0.00 | 0.00 | 0.00 | 94 | 1010.4 |
| 20260506120057 | 22 | 0 | 0.0 | 1.6 | 0.00 | 0.00 | 0.00 | 94 | 1010.3 |
| 20260506115543 | 22 | 0 | 0.0 | 1.6 | 0.00 | 0.00 | 0.00 | 94 | 1010.2 |
| 20260506115042 | 22 | 0 | 0.0 | 1.6 | 0.00 | 0.00 | 0.00 | 94 | 1010.3 |
| 20260506114601 | 22 | 0 | 0.0 | 1.6 | 0.00 | 0.00 | 0.00 | 94 | 1010.3 |
| 20260506114043 | 22 | 0 | 0.0 | 1.6 | 0.00 | 0.00 | 0.00 | 94 | 1010.3 |
| 20260506113542 | 22 | 0 | 0.0 | 0.0 | 0.00 | 0.00 | 0.00 | 94 | 1010.3 |
| 20260506113048 | 22 | 0 | 0.0 | 0.0 | 0.00 | 0.00 | 0.00 | 94 | 1010.4 |
| 20260506112544 | 22 | 0 | 0.0 | 3.2 | 0.00 | 0.00 | 0.00 | 94 | 1010.2 |
| 20260506112043 | 22 | 0 | 0.0 | 3.2 | 0.00 | 0.00 | 0.00 | 94 | 1010.3 |
| 20260506111557 | 22 | 0 | 0.0 | 3.2 | 0.00 | 0.00 | 0.00 | 94 | 1010.2 |
| 20260506111043 | 22 | 0 | 0.0 | 0.0 | 0.00 | 0.00 | 0.00 | 94 | 1010.2 |
| 20260506110544 | 22 | 0 | 0.0 | 0.0 | 0.00 | 0.00 | 0.00 | 94 | 1010.2 |
| 20260506110054 | 22 | 0 | 0.0 | 1.6 | 0.00 | 0.00 | 0.00 | 94 | 1010.3 |
| 20260506105547 | 22 | 0 | 0.0 | 1.6 | 0.00 | 0.00 | 0.00 | 94 | 1010.1 |
| 20260506105048 | 22 | 0 | 0.0 | 1.6 | 0.00 | 0.00 | 0.00 | 94 | 1010.3 |
| 20260506104559 | 22 | 0 | 0.0 | 3.2 | 0.00 | 0.00 | 0.00 | 94 | 1010.2 |
| 20260506104043 | 22 | 0 | 0.0 | 3.2 | 0.00 | 0.00 | 0.00 | 94 | 1010.1 |
| 20260506103542 | 22 | 0 | 0.0 | 3.2 | 0.00 | 0.00 | 0.00 | 94 | 1010.0 |
| 20260506103058 | 22 | 91 | 0.0 | 3.2 | 0.00 | 0.00 | 0.00 | 94 | 1009.9 |
| 20260506102543 | 22 | 91 | 0.0 | 3.2 | 0.00 | 0.00 | 0.00 | 94 | 1009.9 |
| 20260506102044 | 22 | 0 | 0.0 | 1.6 | 0.00 | 0.00 | 0.00 | 94 | 1010.0 |
| 20260506101550 | 22 | 0 | 0.0 | 1.6 | 0.00 | 0.00 | 0.00 | 94 | 1009.8 |
| 20260506101044 | 22 | 0 | 0.0 | 1.6 | 0.00 | 0.00 | 0.00 | 94 | 1009.6 |
| 20260506100546 | 22 | 0 | 0.0 | 1.6 | 0.00 | 0.00 | 0.00 | 94 | 1009.6 |
| 20260506100050 | 22 | 0 | 0.0 | 1.6 | 0.00 | 0.00 | 0.00 | 94 | 1009.6 |
| 20260506095543 | 22 | 0 | 0.0 | 1.6 | 0.00 | 0.00 | 0.00 | 94 | 1009.5 |
| 20260506095043 | 22 | 0 | 0.0 | 3.2 | 0.00 | 0.00 | 0.00 | 94 | 1009.5 |
| 20260506094554 | 22 | 0 | 0.0 | 3.2 | 0.00 | 0.00 | 0.00 | 93 | 1009.5 |
| 20260506094043 | 22 | 0 | 0.0 | 4.8 | 0.00 | 0.00 | 0.00 | 93 | 1009.4 |
| 20260506093543 | 22 | 0 | 0.0 | 4.8 | 0.00 | 0.00 | 0.00 | 93 | 1009.4 |
| 20260506093051 | 23 | 227 | 1.6 | 4.8 | 0.00 | 0.00 | 0.00 | 93 | 1009.2 |
| 20260506092544 | 23 | 227 | 1.6 | 8.0 | 0.00 | 0.00 | 0.00 | 93 | 1009.2 |
| 20260506092043 | 23 | 229 | 1.6 | 8.0 | 0.00 | 0.00 | 0.00 | 93 | 1009.0 |
| 20260506091555 | 23 | 210 | 3.2 | 6.4 | 0.00 | 0.00 | 0.00 | 92 | 1009.1 |
| 20260506091044 | 23 | 239 | 1.6 | 6.4 | 0.00 | 0.00 | 0.00 | 92 | 1009.1 |
| 20260506090546 | 23 | 191 | 3.2 | 6.4 | 0.00 | 0.00 | 0.00 | 92 | 1009.2 |
| 20260506090059 | 23 | 202 | 1.6 | 6.4 | 0.00 | 0.00 | 0.00 | 91 | 1009.3 |
| 20260506085544 | 23 | 213 | 3.2 | 6.4 | 0.00 | 0.00 | 0.00 | 91 | 1009.1 |
| 20260506085042 | 23 | 219 | 3.2 | 11.3 | 0.00 | 0.00 | 0.00 | 91 | 1009.2 |
| 20260506084550 | 23 | 217 | 4.8 | 11.3 | 0.00 | 0.00 | 0.00 | 91 | 1009.1 |
| 20260506084042 | 23 | 236 | 1.6 | 8.0 | 0.00 | 0.00 | 0.00 | 91 | 1009.1 |
| 20260506083542 | 23 | 228 | 1.6 | 9.7 | 0.00 | 0.00 | 0.00 | 91 | 1009.1 |
| 20260506083050 | 23 | 228 | 3.2 | 9.7 | 0.00 | 0.00 | 0.00 | 91 | 1009.1 |
| 20260506082543 | 23 | 220 | 4.8 | 9.7 | 0.00 | 0.00 | 0.00 | 91 | 1009.1 |
| 20260506082043 | 23 | 244 | 3.2 | 11.3 | 0.00 | 0.00 | 0.00 | 90 | 1009.1 |
| 20260506081549 | 23 | 247 | 6.4 | 17.7 | 0.00 | 0.00 | 0.00 | 90 | 1009.0 |
| 20260506081043 | 23 | 201 | 6.4 | 17.7 | 0.00 | 0.00 | 0.00 | 90 | 1009.0 |
| 20260506080546 | 23 | 228 | 4.8 | 16.1 | 0.00 | 0.00 | 0.00 | 90 | 1009.0 |
| 20260506073050 | 23 | 240 | 3.2 | 11.3 | 0.00 | 0.00 | 0.00 | 89 | 1009.5 |
| 20260506072542 | 23 | 209 | 3.2 | 11.3 | 0.00 | 0.00 | 0.00 | 89 | 1009.6 |
| 20260506072043 | 23 | 208 | 3.2 | 11.3 | 0.00 | 0.00 | 0.00 | 89 | 1009.6 |
| 20260506071603 | 23 | 196 | 6.4 | 12.9 | 0.00 | 0.00 | 0.00 | 89 | 1009.6 |
| 20260506071044 | 23 | 198 | 4.8 | 12.9 | 0.00 | 0.00 | 0.00 | 89 | 1009.6 |
| 20260506070542 | 23 | 192 | 6.4 | 11.3 | 0.00 | 0.00 | 0.00 | 89 | 1009.6 |
| 20260506062044 | 23 | 184 | 4.8 | 14.5 | 0.00 | 0.00 | 0.00 | 91 | 1009.2 |
| 20260506061549 | 23 | 240 | 4.8 | 14.5 | 0.00 | 0.00 | 0.00 | 91 | 1009.1 |
| 20260506061043 | 23 | 193 | 4.8 | 14.5 | 0.00 | 0.00 | 0.00 | 91 | 1009.1 |
| 20260506060543 | 23 | 209 | 4.8 | 12.9 | 0.00 | 0.00 | 0.00 | 91 | 1009.0 |
| 20260506051043 | 23 | 218 | 4.8 | 12.9 | 0.00 | 0.00 | 0.00 | 91 | 1008.9 |
| 20260506050543 | 23 | 247 | 4.8 | 12.9 | 0.00 | 0.00 | 0.00 | 91 | 1008.9 |
| 20260506050105 | 23 | 216 | 4.8 | 9.7 | 0.00 | 0.00 | 0.00 | 91 | 1008.8 |
| 20260506045042 | 23 | 5 | 1.6 | 8.0 | 0.00 | 0.00 | 0.00 | 90 | 1008.8 |
| 20260506044554 | 23 | 150 | 3.2 | 8.0 | 0.00 | 0.00 | 0.00 | 90 | 1009.0 |
| 20260506044042 | 23 | 214 | 0.0 | 12.9 | 0.00 | 0.00 | 0.00 | 90 | 1008.9 |
| 20260506043544 | 23 | 191 | 1.6 | 12.9 | 0.00 | 0.00 | 0.00 | 90 | 1009.0 |
| 20260506043051 | 23 | 217 | 4.8 | 11.3 | 0.00 | 0.00 | 0.00 | 90 | 1009.0 |
| 20260506042544 | 23 | 188 | 3.2 | 11.3 | 0.00 | 0.00 | 0.00 | 90 | 1008.8 |
| 20260506042045 | 23 | 203 | 3.2 | 14.5 | 0.00 | 0.00 | 0.00 | 90 | 1008.8 |
| 20260506041558 | 23 | 216 | 3.2 | 14.5 | 0.00 | 0.00 | 0.00 | 90 | 1008.7 |
| 20260506041044 | 23 | 253 | 3.2 | 11.3 | 0.00 | 0.00 | 0.00 | 90 | 1008.8 |
| 20260506040544 | 23 | 215 | 3.2 | 11.3 | 0.00 | 0.00 | 0.00 | 90 | 1008.7 |
| 20260506040056 | 23 | 207 | 3.2 | 11.3 | 0.00 | 0.00 | 0.00 | 90 | 1008.7 |
| 20260506035545 | 23 | 195 | 1.6 | 6.4 | 0.00 | 0.00 | 0.00 | 90 | 1008.6 |
| 20260506035045 | 23 | 205 | 1.6 | 8.0 | 0.00 | 0.00 | 0.00 | 90 | 1008.7 |
| 20260506034600 | 23 | 220 | 1.6 | 8.0 | 0.00 | 0.00 | 0.00 | 89 | 1008.6 |
| 20260506034045 | 23 | 208 | 3.2 | 9.7 | 0.00 | 0.00 | 0.00 | 89 | 1008.4 |
| 20260506033546 | 23 | 236 | 3.2 | 9.7 | 0.00 | 0.00 | 0.00 | 89 | 1008.3 |
| 20260506033053 | 23 | 200 | 3.2 | 11.3 | 0.00 | 0.00 | 0.00 | 89 | 1008.4 |
| 20260506032550 | 23 | 219 | 1.6 | 11.3 | 0.00 | 0.00 | 0.00 | 88 | 1008.3 |
| 20260506032049 | 23 | 217 | 3.2 | 9.7 | 0.00 | 0.00 | 0.00 | 88 | 1008.2 |
| 20260506031549 | 23 | 196 | 1.6 | 6.4 | 0.00 | 0.00 | 0.00 | 88 | 1008.2 |
| 20260506031047 | 23 | 179 | 3.2 | 6.4 | 0.00 | 0.00 | 0.00 | 88 | 1008.0 |
| 20260506030545 | 23 | 215 | 3.2 | 6.4 | 0.00 | 0.00 | 0.00 | 88 | 1007.9 |
| 20260506030050 | 23 | 207 | 1.6 | 6.4 | 0.00 | 0.00 | 0.00 | 87 | 1007.8 |
| 20260506025546 | 24 | 200 | 1.6 | 6.4 | 0.00 | 0.00 | 0.00 | 87 | 1007.7 |
| 20260506025044 | 24 | 211 | 1.6 | 6.4 | 0.00 | 0.00 | 0.00 | 87 | 1007.7 |
| 20260506024607 | 24 | 171 | 1.6 | 6.4 | 0.00 | 0.00 | 0.00 | 86 | 1007.5 |
| 20260506024045 | 24 | 0 | 1.6 | 3.2 | 0.00 | 0.00 | 0.00 | 86 | 1007.5 |
| 20260506023548 | 24 | 0 | 0.0 | 8.0 | 0.00 | 0.00 | 0.00 | 86 | 1007.3 |
| 20260506023056 | 24 | 229 | 1.6 | 8.0 | 0.00 | 0.00 | 0.00 | 86 | 1007.3 |
| 20260506022545 | 24 | 199 | 1.6 | 6.4 | 0.00 | 0.00 | 0.00 | 86 | 1007.2 |
| 20260506022045 | 24 | 224 | 1.6 | 6.4 | 0.00 | 0.00 | 0.00 | 86 | 1007.2 |
| 20260506021553 | 24 | 221 | 1.6 | 6.4 | 0.00 | 0.00 | 0.00 | 85 | 1007.2 |
| 20260506021044 | 24 | 223 | 1.6 | 6.4 | 0.00 | 0.00 | 0.00 | 85 | 1007.0 |
| 20260506020548 | 25 | 223 | 3.2 | 6.4 | 0.00 | 0.00 | 0.00 | 85 | 1007.0 |
| 20260506020052 | 25 | 221 | 1.6 | 8.0 | 0.00 | 0.00 | 0.00 | 84 | 1007.0 |
| 20260506015548 | 25 | 209 | 1.6 | 8.0 | 0.00 | 0.00 | 0.00 | 84 | 1006.9 |
| 20260506015042 | 25 | 200 | 1.6 | 8.0 | 0.00 | 0.00 | 0.00 | 84 | 1006.8 |
| 20260506014554 | 25 | 203 | 1.6 | 9.7 | 0.00 | 0.00 | 0.00 | 83 | 1006.6 |
| 20260506014047 | 25 | 216 | 3.2 | 9.7 | 0.00 | 0.00 | 0.00 | 83 | 1006.6 |
| 20260506013548 | 25 | 182 | 3.2 | 9.7 | 0.00 | 0.00 | 0.00 | 82 | 1006.5 |
| 20260506013104 | 25 | 216 | 3.2 | 9.7 | 0.00 | 0.00 | 0.00 | 82 | 1006.5 |
| 20260506012544 | 25 | 217 | 1.6 | 9.7 | 0.00 | 0.00 | 0.00 | 82 | 1006.6 |
| 20260506012045 | 25 | 206 | 0.0 | 11.3 | 0.00 | 0.00 | 0.00 | 81 | 1006.7 |
| 20260506011605 | 26 | 202 | 3.2 | 11.3 | 0.00 | 0.00 | 0.00 | 81 | 1006.6 |
| 20260506011045 | 26 | 233 | 4.8 | 12.9 | 0.00 | 0.00 | 0.00 | 81 | 1006.5 |
| 20260506010545 | 26 | 196 | 4.8 | 12.9 | 0.00 | 0.00 | 0.00 | 81 | 1006.4 |
| 20260506010055 | 26 | 234 | 4.8 | 9.7 | 0.00 | 0.00 | 0.00 | 80 | 1006.5 |
| 20260506005543 | 26 | 0 | 1.6 | 9.7 | 0.00 | 0.00 | 0.00 | 80 | 1006.4 |
| 20260506005045 | 26 | 0 | 1.6 | 9.7 | 0.00 | 0.00 | 0.00 | 79 | 1006.4 |
| 20260506004559 | 26 | 219 | 3.2 | 12.9 | 0.00 | 0.00 | 0.00 | 79 | 1006.5 |
| 20260506004045 | 26 | 238 | 4.8 | 12.9 | 0.00 | 0.00 | 0.00 | 79 | 1006.4 |
| 20260506003545 | 26 | 219 | 4.8 | 12.9 | 0.00 | 0.00 | 0.00 | 78 | 1006.4 |
| 20260506003050 | 27 | 196 | 4.8 | 11.3 | 0.00 | 0.00 | 0.00 | 78 | 1006.5 |
| 20260506002546 | 27 | 211 | 4.8 | 11.3 | 0.00 | 0.00 | 0.00 | 78 | 1006.5 |
| 20260506002045 | 27 | 193 | 3.2 | 14.5 | 0.00 | 0.00 | 0.00 | 78 | 1006.6 |
| 20260506001557 | 27 | 220 | 3.2 | 14.5 | 0.00 | 0.00 | 0.00 | 77 | 1006.6 |
| 20260506001045 | 27 | 204 | 6.4 | 14.5 | 0.00 | 0.00 | 0.00 | 77 | 1006.5 |
| 20260506000546 | 27 | 199 | 4.8 | 17.7 | 0.00 | 0.00 | 0.00 | 77 | 1006.5 |
| 20260506000101 | 27 | 225 | 4.8 | 17.7 | 0.00 | 0.00 | 0.00 | 77 | 1006.5 |
| 20260505235545 | 27 | 225 | 6.4 | 17.7 | 0.00 | 0.00 | 0.00 | 76 | 1006.5 |
| 20260505235045 | 27 | 182 | 6.4 | 17.7 | 0.00 | 0.00 | 0.00 | 76 | 1006.4 |
| 20260505234557 | 27 | 177 | 6.4 | 14.5 | 0.00 | 0.00 | 0.00 | 76 | 1006.6 |
| 20260505234044 | 27 | 251 | 4.8 | 12.9 | 0.00 | 0.00 | 0.00 | 76 | 1006.6 |
| 20260505233544 | 27 | 211 | 6.4 | 12.9 | 0.00 | 0.00 | 0.00 | 75 | 1006.4 |
| 20260505233059 | 27 | 209 | 6.4 | 14.5 | 0.00 | 0.00 | 0.00 | 76 | 1006.3 |
| 20260505232545 | 27 | 197 | 4.8 | 14.5 | 0.00 | 0.00 | 0.00 | 75 | 1006.2 |
| 20260505232047 | 27 | 207 | 4.8 | 12.9 | 0.00 | 0.00 | 0.00 | 76 | 1006.3 |
| 20260505231553 | 27 | 248 | 4.8 | 12.9 | 0.00 | 0.00 | 0.00 | 76 | 1006.2 |
| 20260505231047 | 27 | 201 | 3.2 | 12.9 | 0.00 | 0.00 | 0.00 | 76 | 1006.3 |
| 20260505230545 | 27 | 203 | 6.4 | 16.1 | 0.00 | 0.00 | 0.00 | 75 | 1006.2 |
| 20260505230104 | 27 | 206 | 6.4 | 16.1 | 0.00 | 0.00 | 0.00 | 74 | 1006.2 |
| 20260505225548 | 27 | 161 | 4.8 | 16.1 | 0.00 | 0.00 | 0.00 | 75 | 1006.3 |
| 20260505225045 | 27 | 202 | 8.0 | 16.1 | 0.00 | 0.00 | 0.00 | 74 | 1006.3 |
| 20260505224553 | 27 | 236 | 6.4 | 17.7 | 0.00 | 0.00 | 0.00 | 74 | 1006.2 |
| 20260505224046 | 27 | 172 | 8.0 | 17.7 | 0.00 | 0.00 | 0.00 | 74 | 1006.2 |
| 20260505223545 | 27 | 213 | 6.4 | 20.9 | 0.00 | 0.00 | 0.00 | 76 | 1006.2 |
| 20260505223108 | 27 | 227 | 6.4 | 20.9 | 0.00 | 0.00 | 0.00 | 75 | 1006.1 |
| 20260505222544 | 27 | 190 | 8.0 | 17.7 | 0.00 | 0.00 | 0.00 | 74 | 1006.1 |
| 20260505222045 | 27 | 202 | 8.0 | 19.3 | 0.00 | 0.00 | 0.00 | 74 | 1006.1 |
| 20260505221553 | 28 | 233 | 6.4 | 19.3 | 0.00 | 0.00 | 0.00 | 74 | 1006.1 |
| 20260505221047 | 28 | 202 | 8.0 | 14.5 | 0.00 | 0.00 | 0.00 | 73 | 1006.0 |
| 20260505220544 | 27 | 209 | 6.4 | 16.1 | 0.00 | 0.00 | 0.00 | 73 | 1006.0 |
| 20260505220053 | 28 | 188 | 6.4 | 17.7 | 0.00 | 0.00 | 0.00 | 73 | 1006.2 |
| 20260505215545 | 28 | 220 | 6.4 | 17.7 | 0.00 | 0.00 | 0.00 | 72 | 1006.3 |
| 20260505215044 | 28 | 278 | 6.4 | 16.1 | 0.00 | 0.00 | 0.00 | 72 | 1006.3 |
| 20260505214557 | 28 | 221 | 8.0 | 17.7 | 0.00 | 0.00 | 0.00 | 72 | 1006.4 |
| 20260505214045 | 28 | 244 | 8.0 | 20.9 | 0.00 | 0.00 | 0.00 | 72 | 1006.5 |
| 20260505213548 | 27 | 216 | 9.7 | 20.9 | 0.00 | 0.00 | 0.00 | 73 | 1006.5 |
| 20260505213100 | 28 | 231 | 9.7 | 19.3 | 0.00 | 0.00 | 0.00 | 72 | 1006.6 |
| 20260505212545 | 28 | 223 | 8.0 | 19.3 | 0.00 | 0.00 | 0.00 | 73 | 1006.7 |
| 20260505212045 | 28 | 217 | 8.0 | 17.7 | 0.00 | 0.00 | 0.00 | 72 | 1006.6 |
| 20260505211556 | 28 | 224 | 6.4 | 16.1 | 0.00 | 0.00 | 0.00 | 74 | 1006.6 |
| 20260505211045 | 28 | 204 | 6.4 | 19.3 | 0.00 | 0.00 | 0.00 | 74 | 1006.7 |
| 20260505210544 | 28 | 259 | 9.7 | 19.3 | 0.00 | 0.00 | 0.00 | 73 | 1006.7 |
| 20260505210057 | 28 | 225 | 6.4 | 16.1 | 0.00 | 0.00 | 0.00 | 74 | 1006.8 |
| 20260505205544 | 28 | 212 | 8.0 | 25.7 | 0.00 | 0.00 | 0.00 | 73 | 1006.8 |
| 20260505205045 | 27 | 217 | 11.3 | 25.7 | 0.00 | 0.00 | 0.00 | 74 | 1006.9 |
| 20260505204601 | 27 | 217 | 8.0 | 25.7 | 0.00 | 0.00 | 0.00 | 73 | 1006.9 |
| 20260505204044 | 27 | 254 | 11.3 | 22.5 | 0.00 | 0.00 | 0.00 | 73 | 1007.0 |
| 20260505203544 | 28 | 200 | 9.7 | 22.5 | 0.00 | 0.00 | 0.00 | 74 | 1007.1 |
| 20260505203054 | 28 | 221 | 9.7 | 22.5 | 0.00 | 0.00 | 0.00 | 72 | 1007.0 |
| 20260505202543 | 28 | 219 | 8.0 | 22.5 | 0.00 | 0.00 | 0.00 | 73 | 1007.0 |
| 20260505202044 | 27 | 215 | 9.7 | 25.7 | 0.00 | 0.00 | 0.00 | 73 | 1007.1 |
| 20260505201551 | 27 | 230 | 9.7 | 25.7 | 0.00 | 0.00 | 0.00 | 73 | 1007.3 |
| 20260505201045 | 28 | 235 | 11.3 | 19.3 | 0.00 | 0.00 | 0.00 | 71 | 1007.3 |
| 20260505200544 | 28 | 195 | 8.0 | 17.7 | 0.00 | 0.00 | 0.00 | 73 | 1007.3 |
| 20260505200051 | 28 | 192 | 9.7 | 17.7 | 0.00 | 0.00 | 0.00 | 72 | 1007.3 |
| 20260505195547 | 28 | 199 | 9.7 | 20.9 | 0.00 | 0.00 | 0.00 | 71 | 1007.3 |
| 20260505195044 | 28 | 190 | 9.7 | 20.9 | 0.00 | 0.00 | 0.00 | 71 | 1007.4 |
| 20260505194605 | 28 | 206 | 9.7 | 16.1 | 0.00 | 0.00 | 0.00 | 71 | 1007.4 |
| 20260505194044 | 28 | 208 | 4.8 | 17.7 | 0.00 | 0.00 | 0.00 | 71 | 1007.4 |
| 20260505193545 | 28 | 220 | 8.0 | 17.7 | 0.00 | 0.00 | 0.00 | 73 | 1007.6 |
| 20260505193049 | 28 | 197 | 6.4 | 16.1 | 0.00 | 0.00 | 0.00 | 72 | 1007.6 |
| 20260505192544 | 27 | 239 | 6.4 | 17.7 | 0.00 | 0.00 | 0.00 | 74 | 1007.8 |
| 20260505192044 | 27 | 238 | 9.7 | 17.7 | 0.00 | 0.00 | 0.00 | 72 | 1007.9 |
| 20260505191559 | 27 | 221 | 8.0 | 14.5 | 0.00 | 0.00 | 0.00 | 72 | 1008.0 |
| 20260505191044 | 27 | 222 | 6.4 | 12.9 | 0.00 | 0.00 | 0.00 | 75 | 1007.9 |
| 20260505190543 | 27 | 188 | 6.4 | 17.7 | 0.00 | 0.00 | 0.00 | 75 | 1008.1 |
| 20260505190056 | 26 | 263 | 6.4 | 17.7 | 0.00 | 0.00 | 0.00 | 75 | 1008.2 |
| 20260505185549 | 26 | 218 | 8.0 | 17.7 | 0.00 | 0.00 | 0.00 | 74 | 1008.2 |
| 20260505185050 | 27 | 254 | 8.0 | 19.3 | 0.00 | 0.00 | 0.00 | 73 | 1008.4 |
| 20260505184553 | 27 | 219 | 9.7 | 24.1 | 0.00 | 0.00 | 0.00 | 73 | 1008.4 |
| 20260505184044 | 26 | 195 | 9.7 | 24.1 | 0.00 | 0.00 | 0.00 | 76 | 1008.5 |
| 20260505183548 | 27 | 197 | 8.0 | 19.3 | 0.00 | 0.00 | 0.00 | 76 | 1008.6 |
| 20260505183100 | 27 | 194 | 6.4 | 19.3 | 0.00 | 0.00 | 0.00 | 75 | 1008.5 |
| 20260505182544 | 26 | 216 | 11.3 | 17.7 | 0.00 | 0.00 | 0.00 | 76 | 1008.6 |
| 20260505182043 | 26 | 233 | 8.0 | 17.7 | 0.00 | 0.00 | 0.00 | 79 | 1008.8 |
| 20260505181553 | 25 | 229 | 9.7 | 17.7 | 0.00 | 0.00 | 0.00 | 78 | 1008.9 |
| 20260505181044 | 26 | 234 | 6.4 | 16.1 | 0.00 | 0.00 | 0.00 | 79 | 1008.9 |
| 20260505180543 | 25 | 265 | 8.0 | 19.3 | 0.00 | 0.00 | 0.00 | 79 | 1008.8 |
| 20260505180051 | 25 | 234 | 9.7 | 19.3 | 0.00 | 0.00 | 0.00 | 78 | 1008.8 |
| 20260505175543 | 25 | 231 | 8.0 | 17.7 | 0.00 | 0.00 | 0.00 | 80 | 1008.8 |
| 20260505175044 | 25 | 221 | 8.0 | 17.7 | 0.00 | 0.00 | 0.00 | 78 | 1009.0 |
| 20260505174558 | 25 | 234 | 9.7 | 20.9 | 0.00 | 0.00 | 0.00 | 79 | 1009.0 |
| 20260505174044 | 25 | 221 | 9.7 | 20.9 | 0.00 | 0.00 | 0.00 | 80 | 1009.0 |
| 20260505173543 | 25 | 215 | 9.7 | 17.7 | 0.00 | 0.00 | 0.00 | 80 | 1009.1 |
| 20260505173049 | 25 | 224 | 9.7 | 20.9 | 0.00 | 0.00 | 0.00 | 79 | 1009.1 |
| 20260505172545 | 25 | 225 | 11.3 | 20.9 | 0.00 | 0.00 | 0.00 | 80 | 1009.0 |
| 20260505172043 | 25 | 209 | 9.7 | 17.7 | 0.00 | 0.00 | 0.00 | 80 | 1009.0 |
| 20260505171555 | 24 | 221 | 8.0 | 20.9 | 0.00 | 0.00 | 0.00 | 81 | 1009.0 |
| 20260505171047 | 24 | 259 | 11.3 | 22.5 | 0.00 | 0.00 | 0.00 | 82 | 1009.0 |
| 20260505170543 | 24 | 224 | 8.0 | 22.5 | 0.00 | 0.00 | 0.00 | 82 | 1009.2 |
| 20260505170049 | 24 | 208 | 8.0 | 16.1 | 0.00 | 0.00 | 0.00 | 82 | 1009.2 |